sensor_id;sensor_type;location;lat;lon;timestamp;P1;durP1;ratioP1;P2;durP2;ratioP2
43086;SDS011;28708;52.224;6.924;2022-11-15T00:00:30;24.80;;;15.50;;
43086;SDS011;28708;52.224;6.924;2022-11-15T00:03:17;27.97;;;16.40;;
43086;SDS011;28708;52.224;6.924;2022-11-15T00:06:05;24.87;;;16.83;;
43086;SDS011;28708;52.224;6.924;2022-11-15T00:08:49;23.40;;;15.97;;
43086;SDS011;28708;52.224;6.924;2022-11-15T00:11:33;25.33;;;16.60;;
43086;SDS011;28708;52.224;6.924;2022-11-15T00:14:17;25.93;;;16.93;;
43086;SDS011;28708;52.224;6.924;2022-11-15T00:17:01;28.53;;;18.07;;
43086;SDS011;28708;52.224;6.924;2022-11-15T00:19:46;27.87;;;17.70;;
43086;SDS011;28708;52.224;6.924;2022-11-15T00:22:33;30.73;;;18.87;;
43086;SDS011;28708;52.224;6.924;2022-11-15T00:25:17;33.33;;;19.23;;
43086;SDS011;28708;52.224;6.924;2022-11-15T00:28:01;33.23;;;18.73;;
43086;SDS011;28708;52.224;6.924;2022-11-15T00:30:46;39.47;;;21.17;;
43086;SDS011;28708;52.224;6.924;2022-11-15T00:33:30;39.73;;;20.97;;
43086;SDS011;28708;52.224;6.924;2022-11-15T00:36:15;38.87;;;21.60;;
43086;SDS011;28708;52.224;6.924;2022-11-15T00:38:59;43.63;;;23.83;;
43086;SDS011;28708;52.224;6.924;2022-11-15T00:41:43;45.63;;;22.77;;
43086;SDS011;28708;52.224;6.924;2022-11-15T00:44:27;44.90;;;24.50;;
43086;SDS011;28708;52.224;6.924;2022-11-15T00:47:11;49.90;;;24.33;;
43086;SDS011;28708;52.224;6.924;2022-11-15T00:49:57;46.83;;;24.50;;
43086;SDS011;28708;52.224;6.924;2022-11-15T00:52:41;50.20;;;25.37;;
43086;SDS011;28708;52.224;6.924;2022-11-15T00:55:26;52.80;;;25.80;;
43086;SDS011;28708;52.224;6.924;2022-11-15T00:58:10;53.83;;;26.43;;
43086;SDS011;28708;52.224;6.924;2022-11-15T01:00:54;58.10;;;26.77;;
43086;SDS011;28708;52.224;6.924;2022-11-15T01:03:38;49.13;;;26.27;;
43086;SDS011;28708;52.224;6.924;2022-11-15T01:06:24;51.37;;;26.77;;
43086;SDS011;28708;52.224;6.924;2022-11-15T01:09:08;50.23;;;25.40;;
43086;SDS011;28708;52.224;6.924;2022-11-15T01:11:52;51.83;;;26.30;;
43086;SDS011;28708;52.224;6.924;2022-11-15T01:14:36;51.73;;;28.13;;
43086;SDS011;28708;52.224;6.924;2022-11-15T01:17:20;53.57;;;28.20;;
43086;SDS011;28708;52.224;6.924;2022-11-15T01:20:04;49.93;;;26.80;;
43086;SDS011;28708;52.224;6.924;2022-11-15T01:22:48;48.40;;;27.37;;
43086;SDS011;28708;52.224;6.924;2022-11-15T01:25:34;52.57;;;26.93;;
43086;SDS011;28708;52.224;6.924;2022-11-15T01:28:18;50.00;;;26.13;;
43086;SDS011;28708;52.224;6.924;2022-11-15T01:31:03;47.43;;;26.53;;
43086;SDS011;28708;52.224;6.924;2022-11-15T01:33:48;50.30;;;26.50;;
43086;SDS011;28708;52.224;6.924;2022-11-15T01:36:33;46.37;;;25.73;;
43086;SDS011;28708;52.224;6.924;2022-11-15T01:39:17;47.13;;;26.33;;
43086;SDS011;28708;52.224;6.924;2022-11-15T01:42:01;46.23;;;25.23;;
43086;SDS011;28708;52.224;6.924;2022-11-15T01:44:47;51.23;;;26.27;;
43086;SDS011;28708;52.224;6.924;2022-11-15T01:47:36;43.03;;;25.33;;
43086;SDS011;28708;52.224;6.924;2022-11-15T01:50:25;44.07;;;24.80;;
43086;SDS011;28708;52.224;6.924;2022-11-15T01:53:13;42.47;;;24.03;;
43086;SDS011;28708;52.224;6.924;2022-11-15T01:55:58;38.63;;;24.30;;
43086;SDS011;28708;52.224;6.924;2022-11-15T01:58:46;36.70;;;23.53;;
43086;SDS011;28708;52.224;6.924;2022-11-15T02:01:31;43.37;;;25.30;;
43086;SDS011;28708;52.224;6.924;2022-11-15T02:04:17;39.50;;;25.10;;
43086;SDS011;28708;52.224;6.924;2022-11-15T02:07:05;40.53;;;23.17;;
43086;SDS011;28708;52.224;6.924;2022-11-15T02:09:52;39.23;;;23.63;;
43086;SDS011;28708;52.224;6.924;2022-11-15T02:12:36;38.93;;;24.40;;
43086;SDS011;28708;52.224;6.924;2022-11-15T02:15:21;38.90;;;24.10;;
43086;SDS011;28708;52.224;6.924;2022-11-15T02:18:18;35.07;;;22.33;;
43086;SDS011;28708;52.224;6.924;2022-11-15T02:24:20;40.07;;;24.20;;
43086;SDS011;28708;52.224;6.924;2022-11-15T02:33:42;36.70;;;24.13;;
43086;SDS011;28708;52.224;6.924;2022-11-15T02:36:34;43.17;;;24.70;;
43086;SDS011;28708;52.224;6.924;2022-11-15T02:45:36;39.83;;;22.63;;
43086;SDS011;28708;52.224;6.924;2022-11-15T02:48:24;42.13;;;24.50;;
43086;SDS011;28708;52.224;6.924;2022-11-15T02:51:09;47.17;;;24.63;;
43086;SDS011;28708;52.224;6.924;2022-11-15T02:53:55;44.23;;;24.97;;
43086;SDS011;28708;52.224;6.924;2022-11-15T02:56:39;40.37;;;26.13;;
43086;SDS011;28708;52.224;6.924;2022-11-15T02:59:27;37.60;;;22.83;;
43086;SDS011;28708;52.224;6.924;2022-11-15T03:02:34;37.90;;;25.33;;
43086;SDS011;28708;52.224;6.924;2022-11-15T03:11:33;44.20;;;24.43;;
43086;SDS011;28708;52.224;6.924;2022-11-15T03:14:29;45.77;;;26.27;;
43086;SDS011;28708;52.224;6.924;2022-11-15T03:17:19;44.30;;;25.00;;
43086;SDS011;28708;52.224;6.924;2022-11-15T03:20:08;35.90;;;22.63;;
43086;SDS011;28708;52.224;6.924;2022-11-15T03:22:55;36.10;;;23.37;;
43086;SDS011;28708;52.224;6.924;2022-11-15T03:25:46;37.80;;;24.13;;
43086;SDS011;28708;52.224;6.924;2022-11-15T03:28:35;33.42;;;21.55;;
43086;SDS011;28708;52.224;6.924;2022-11-15T03:31:25;34.67;;;23.10;;
43086;SDS011;28708;52.224;6.924;2022-11-15T03:34:41;37.90;;;24.30;;
43086;SDS011;28708;52.224;6.924;2022-11-15T03:37:34;38.67;;;23.17;;
43086;SDS011;28708;52.224;6.924;2022-11-15T03:40:39;37.70;;;22.27;;
43086;SDS011;28708;52.224;6.924;2022-11-15T03:46:32;29.98;;;20.55;;
43086;SDS011;28708;52.224;6.924;2022-11-15T03:49:27;34.07;;;21.33;;
43086;SDS011;28708;52.224;6.924;2022-11-15T03:52:20;41.90;;;20.43;;
43086;SDS011;28708;52.224;6.924;2022-11-15T03:55:06;31.27;;;20.87;;
43086;SDS011;28708;52.224;6.924;2022-11-15T03:57:54;32.13;;;21.43;;
43086;SDS011;28708;52.224;6.924;2022-11-15T04:00:42;33.23;;;22.07;;
43086;SDS011;28708;52.224;6.924;2022-11-15T04:03:26;34.57;;;21.13;;
43086;SDS011;28708;52.224;6.924;2022-11-15T04:06:10;31.33;;;21.20;;
43086;SDS011;28708;52.224;6.924;2022-11-15T04:08:54;32.87;;;20.07;;
43086;SDS011;28708;52.224;6.924;2022-11-15T04:11:39;36.37;;;20.77;;
43086;SDS011;28708;52.224;6.924;2022-11-15T04:14:23;37.33;;;20.50;;
43086;SDS011;28708;52.224;6.924;2022-11-15T04:17:07;27.63;;;19.13;;
43086;SDS011;28708;52.224;6.924;2022-11-15T04:19:51;26.37;;;17.70;;
43086;SDS011;28708;52.224;6.924;2022-11-15T04:22:55;29.43;;;18.20;;
43086;SDS011;28708;52.224;6.924;2022-11-15T04:26:00;27.27;;;18.90;;
43086;SDS011;28708;52.224;6.924;2022-11-15T04:28:46;30.03;;;19.23;;
43086;SDS011;28708;52.224;6.924;2022-11-15T04:31:49;30.27;;;19.57;;
43086;SDS011;28708;52.224;6.924;2022-11-15T04:34:33;25.57;;;17.80;;
43086;SDS011;28708;52.224;6.924;2022-11-15T04:37:19;31.93;;;18.67;;
43086;SDS011;28708;52.224;6.924;2022-11-15T04:40:03;27.20;;;18.40;;
43086;SDS011;28708;52.224;6.924;2022-11-15T04:42:48;29.90;;;19.00;;
43086;SDS011;28708;52.224;6.924;2022-11-15T04:45:32;23.83;;;17.10;;
43086;SDS011;28708;52.224;6.924;2022-11-15T04:48:16;25.20;;;18.10;;
43086;SDS011;28708;52.224;6.924;2022-11-15T04:51:00;25.73;;;17.93;;
43086;SDS011;28708;52.224;6.924;2022-11-15T04:53:44;27.17;;;18.90;;
43086;SDS011;28708;52.224;6.924;2022-11-15T04:56:29;26.37;;;18.23;;
43086;SDS011;28708;52.224;6.924;2022-11-15T04:59:13;29.57;;;18.33;;
43086;SDS011;28708;52.224;6.924;2022-11-15T05:01:57;26.60;;;18.00;;
43086;SDS011;28708;52.224;6.924;2022-11-15T05:04:41;28.23;;;18.30;;
43086;SDS011;28708;52.224;6.924;2022-11-15T05:07:26;27.60;;;18.47;;
43086;SDS011;28708;52.224;6.924;2022-11-15T05:10:10;29.20;;;17.77;;
43086;SDS011;28708;52.224;6.924;2022-11-15T05:12:54;25.13;;;17.27;;
43086;SDS011;28708;52.224;6.924;2022-11-15T05:15:38;27.33;;;17.47;;
43086;SDS011;28708;52.224;6.924;2022-11-15T05:18:23;23.47;;;16.47;;
43086;SDS011;28708;52.224;6.924;2022-11-15T05:21:08;26.37;;;16.23;;
43086;SDS011;28708;52.224;6.924;2022-11-15T05:23:54;32.57;;;18.77;;
43086;SDS011;28708;52.224;6.924;2022-11-15T05:26:38;25.97;;;16.80;;
43086;SDS011;28708;52.224;6.924;2022-11-15T05:29:22;24.23;;;16.70;;
43086;SDS011;28708;52.224;6.924;2022-11-15T05:32:06;27.10;;;16.83;;
43086;SDS011;28708;52.224;6.924;2022-11-15T05:34:54;25.87;;;16.70;;
43086;SDS011;28708;52.224;6.924;2022-11-15T05:37:38;28.10;;;17.83;;
43086;SDS011;28708;52.224;6.924;2022-11-15T05:40:22;22.30;;;16.43;;
43086;SDS011;28708;52.224;6.924;2022-11-15T05:43:07;22.37;;;15.47;;
43086;SDS011;28708;52.224;6.924;2022-11-15T05:45:52;25.57;;;16.37;;
43086;SDS011;28708;52.224;6.924;2022-11-15T05:48:37;29.03;;;17.70;;
43086;SDS011;28708;52.224;6.924;2022-11-15T05:51:24;26.97;;;17.97;;
43086;SDS011;28708;52.224;6.924;2022-11-15T05:54:09;27.87;;;19.63;;
43086;SDS011;28708;52.224;6.924;2022-11-15T05:56:54;29.17;;;18.70;;
43086;SDS011;28708;52.224;6.924;2022-11-15T05:59:39;31.53;;;21.03;;
43086;SDS011;28708;52.224;6.924;2022-11-15T06:02:24;27.33;;;21.20;;
43086;SDS011;28708;52.224;6.924;2022-11-15T06:05:08;30.00;;;19.93;;
43086;SDS011;28708;52.224;6.924;2022-11-15T06:07:52;37.50;;;21.43;;
43086;SDS011;28708;52.224;6.924;2022-11-15T06:10:36;35.17;;;23.20;;
43086;SDS011;28708;52.224;6.924;2022-11-15T06:13:20;35.37;;;22.30;;
43086;SDS011;28708;52.224;6.924;2022-11-15T06:16:04;30.00;;;22.37;;
43086;SDS011;28708;52.224;6.924;2022-11-15T06:18:49;33.47;;;22.57;;
43086;SDS011;28708;52.224;6.924;2022-11-15T06:21:33;37.50;;;24.17;;
43086;SDS011;28708;52.224;6.924;2022-11-15T06:24:17;35.30;;;21.97;;
43086;SDS011;28708;52.224;6.924;2022-11-15T06:27:01;33.77;;;22.17;;
43086;SDS011;28708;52.224;6.924;2022-11-15T06:29:45;41.60;;;26.77;;
43086;SDS011;28708;52.224;6.924;2022-11-15T06:32:29;32.70;;;23.03;;
43086;SDS011;28708;52.224;6.924;2022-11-15T06:35:16;42.20;;;26.27;;
43086;SDS011;28708;52.224;6.924;2022-11-15T06:38:07;37.90;;;25.27;;
43086;SDS011;28708;52.224;6.924;2022-11-15T06:40:53;38.43;;;25.43;;
43086;SDS011;28708;52.224;6.924;2022-11-15T06:43:37;36.97;;;24.20;;
43086;SDS011;28708;52.224;6.924;2022-11-15T06:46:22;43.50;;;28.03;;
43086;SDS011;28708;52.224;6.924;2022-11-15T06:49:06;41.33;;;26.53;;
43086;SDS011;28708;52.224;6.924;2022-11-15T06:51:50;46.07;;;28.07;;
43086;SDS011;28708;52.224;6.924;2022-11-15T06:54:34;46.57;;;28.47;;
43086;SDS011;28708;52.224;6.924;2022-11-15T06:57:18;41.00;;;27.83;;
43086;SDS011;28708;52.224;6.924;2022-11-15T07:00:05;42.33;;;27.63;;
43086;SDS011;28708;52.224;6.924;2022-11-15T07:02:50;40.37;;;27.80;;
43086;SDS011;28708;52.224;6.924;2022-11-15T07:05:34;45.13;;;28.23;;
43086;SDS011;28708;52.224;6.924;2022-11-15T07:08:18;40.37;;;28.17;;
43086;SDS011;28708;52.224;6.924;2022-11-15T07:11:04;52.77;;;30.70;;
43086;SDS011;28708;52.224;6.924;2022-11-15T07:13:49;41.27;;;27.87;;
43086;SDS011;28708;52.224;6.924;2022-11-15T07:16:33;41.47;;;27.13;;
43086;SDS011;28708;52.224;6.924;2022-11-15T07:19:19;39.60;;;26.57;;
43086;SDS011;28708;52.224;6.924;2022-11-15T07:22:03;43.67;;;28.70;;
43086;SDS011;28708;52.224;6.924;2022-11-15T07:24:47;43.47;;;28.47;;
43086;SDS011;28708;52.224;6.924;2022-11-15T07:27:31;52.40;;;29.33;;
43086;SDS011;28708;52.224;6.924;2022-11-15T07:30:15;37.93;;;27.10;;
43086;SDS011;28708;52.224;6.924;2022-11-15T07:33:00;45.13;;;30.40;;
43086;SDS011;28708;52.224;6.924;2022-11-15T07:35:44;42.80;;;29.13;;
43086;SDS011;28708;52.224;6.924;2022-11-15T07:38:32;43.70;;;28.23;;
43086;SDS011;28708;52.224;6.924;2022-11-15T07:41:17;45.30;;;29.47;;
43086;SDS011;28708;52.224;6.924;2022-11-15T07:44:02;49.97;;;30.50;;
43086;SDS011;28708;52.224;6.924;2022-11-15T07:46:46;48.10;;;31.27;;
43086;SDS011;28708;52.224;6.924;2022-11-15T07:49:30;44.53;;;29.33;;
43086;SDS011;28708;52.224;6.924;2022-11-15T07:52:14;41.50;;;26.07;;
43086;SDS011;28708;52.224;6.924;2022-11-15T07:54:58;44.83;;;28.17;;
43086;SDS011;28708;52.224;6.924;2022-11-15T07:57:42;47.93;;;29.13;;
43086;SDS011;28708;52.224;6.924;2022-11-15T08:00:26;37.37;;;25.20;;
43086;SDS011;28708;52.224;6.924;2022-11-15T08:03:11;44.90;;;26.43;;
43086;SDS011;28708;52.224;6.924;2022-11-15T08:05:57;41.23;;;26.27;;
43086;SDS011;28708;52.224;6.924;2022-11-15T08:08:41;41.13;;;25.47;;
43086;SDS011;28708;52.224;6.924;2022-11-15T08:11:25;39.47;;;24.97;;
43086;SDS011;28708;52.224;6.924;2022-11-15T08:14:10;40.13;;;25.33;;
43086;SDS011;28708;52.224;6.924;2022-11-15T08:16:54;36.67;;;23.83;;
43086;SDS011;28708;52.224;6.924;2022-11-15T08:19:39;36.53;;;24.43;;
43086;SDS011;28708;52.224;6.924;2022-11-15T08:22:22;36.50;;;23.63;;
43086;SDS011;28708;52.224;6.924;2022-11-15T08:25:07;39.67;;;24.20;;
43086;SDS011;28708;52.224;6.924;2022-11-15T08:27:56;36.33;;;24.37;;
43086;SDS011;28708;52.224;6.924;2022-11-15T08:30:42;33.63;;;21.83;;
43086;SDS011;28708;52.224;6.924;2022-11-15T08:33:29;38.83;;;22.33;;
43086;SDS011;28708;52.224;6.924;2022-11-15T08:36:14;28.03;;;20.27;;
43086;SDS011;28708;52.224;6.924;2022-11-15T08:39:00;31.27;;;21.43;;
43086;SDS011;28708;52.224;6.924;2022-11-15T08:41:44;29.60;;;19.57;;
43086;SDS011;28708;52.224;6.924;2022-11-15T08:44:28;24.90;;;17.90;;
43086;SDS011;28708;52.224;6.924;2022-11-15T08:47:13;24.07;;;18.43;;
43086;SDS011;28708;52.224;6.924;2022-11-15T08:49:57;25.20;;;17.50;;
43086;SDS011;28708;52.224;6.924;2022-11-15T08:52:42;21.93;;;16.20;;
43086;SDS011;28708;52.224;6.924;2022-11-15T08:55:26;22.33;;;16.27;;
43086;SDS011;28708;52.224;6.924;2022-11-15T08:58:10;25.13;;;17.17;;
43086;SDS011;28708;52.224;6.924;2022-11-15T09:00:54;24.03;;;14.73;;
43086;SDS011;28708;52.224;6.924;2022-11-15T09:03:39;21.27;;;14.03;;
43086;SDS011;28708;52.224;6.924;2022-11-15T09:06:24;18.87;;;13.80;;
43086;SDS011;28708;52.224;6.924;2022-11-15T09:09:08;17.23;;;11.77;;
43086;SDS011;28708;52.224;6.924;2022-11-15T09:11:52;15.20;;;11.20;;
43086;SDS011;28708;52.224;6.924;2022-11-15T09:14:36;17.67;;;10.77;;
43086;SDS011;28708;52.224;6.924;2022-11-15T09:17:21;16.57;;;9.87;;
43086;SDS011;28708;52.224;6.924;2022-11-15T09:20:05;13.30;;;9.73;;
43086;SDS011;28708;52.224;6.924;2022-11-15T09:22:50;11.70;;;8.40;;
43086;SDS011;28708;52.224;6.924;2022-11-15T09:25:34;13.40;;;8.80;;
43086;SDS011;28708;52.224;6.924;2022-11-15T09:28:18;13.23;;;8.47;;
43086;SDS011;28708;52.224;6.924;2022-11-15T09:31:03;11.30;;;8.60;;
43086;SDS011;28708;52.224;6.924;2022-11-15T09:33:49;13.20;;;9.00;;
43086;SDS011;28708;52.224;6.924;2022-11-15T09:36:33;13.27;;;10.07;;
43086;SDS011;28708;52.224;6.924;2022-11-15T09:39:17;15.47;;;10.10;;
43086;SDS011;28708;52.224;6.924;2022-11-15T09:45:09;11.93;;;9.00;;
43086;SDS011;28708;52.224;6.924;2022-11-15T09:48:10;11.40;;;8.90;;
43086;SDS011;28708;52.224;6.924;2022-11-15T09:51:38;11.70;;;8.53;;
43086;SDS011;28708;52.224;6.924;2022-11-15T09:54:16;10.20;;;8.40;;
43086;SDS011;28708;52.224;6.924;2022-11-15T09:56:45;9.30;;;7.83;;
43086;SDS011;28708;52.224;6.924;2022-11-15T10:04:46;9.57;;;6.82;;
43086;SDS011;28708;52.224;6.924;2022-11-15T10:10:14;9.90;;;6.17;;
43086;SDS011;28708;52.224;6.924;2022-11-15T10:12:53;13.07;;;6.70;;
43086;SDS011;28708;52.224;6.924;2022-11-15T10:15:19;10.90;;;6.23;;
43086;SDS011;28708;52.224;6.924;2022-11-15T10:20:25;9.00;;;4.93;;
43086;SDS011;28708;52.224;6.924;2022-11-15T10:22:53;7.77;;;4.43;;
43086;SDS011;28708;52.224;6.924;2022-11-15T10:25:26;12.93;;;4.70;;
43086;SDS011;28708;52.224;6.924;2022-11-15T10:27:55;5.80;;;3.40;;
43086;SDS011;28708;52.224;6.924;2022-11-15T10:30:23;9.38;;;4.50;;
43086;SDS011;28708;52.224;6.924;2022-11-15T10:32:55;8.50;;;3.93;;
43086;SDS011;28708;52.224;6.924;2022-11-15T10:37:49;8.43;;;3.20;;
43086;SDS011;28708;52.224;6.924;2022-11-15T10:40:16;5.03;;;3.10;;
43086;SDS011;28708;52.224;6.924;2022-11-15T10:42:42;6.83;;;3.40;;
43086;SDS011;28708;52.224;6.924;2022-11-15T10:45:24;7.23;;;3.33;;
43086;SDS011;28708;52.224;6.924;2022-11-15T10:48:14;7.00;;;3.10;;
43086;SDS011;28708;52.224;6.924;2022-11-15T10:50:44;10.13;;;3.13;;
43086;SDS011;28708;52.224;6.924;2022-11-15T10:53:26;6.60;;;2.63;;
43086;SDS011;28708;52.224;6.924;2022-11-15T10:55:56;5.73;;;2.47;;
43086;SDS011;28708;52.224;6.924;2022-11-15T10:58:36;5.83;;;2.10;;
43086;SDS011;28708;52.224;6.924;2022-11-15T11:03:40;5.13;;;2.10;;
43086;SDS011;28708;52.224;6.924;2022-11-15T11:08:33;7.07;;;2.50;;
43086;SDS011;28708;52.224;6.924;2022-11-15T11:10:59;5.47;;;2.00;;
43086;SDS011;28708;52.224;6.924;2022-11-15T11:13:31;3.90;;;2.20;;
43086;SDS011;28708;52.224;6.924;2022-11-15T11:18:49;6.40;;;2.47;;
43086;SDS011;28708;52.224;6.924;2022-11-15T11:21:28;3.50;;;1.50;;
43086;SDS011;28708;52.224;6.924;2022-11-15T11:24:08;4.43;;;2.03;;
43086;SDS011;28708;52.224;6.924;2022-11-15T11:32:34;6.38;;;1.17;;
43086;SDS011;28708;52.224;6.924;2022-11-15T11:35:05;2.83;;;1.40;;
43086;SDS011;28708;52.224;6.924;2022-11-15T11:43:06;4.83;;;1.80;;
43086;SDS011;28708;52.224;6.924;2022-11-15T11:48:03;5.07;;;2.20;;
43086;SDS011;28708;52.224;6.924;2022-11-15T11:50:40;4.17;;;2.17;;
43086;SDS011;28708;52.224;6.924;2022-11-15T11:56:29;4.77;;;2.67;;
43086;SDS011;28708;52.224;6.924;2022-11-15T11:59:06;4.97;;;3.10;;
43086;SDS011;28708;52.224;6.924;2022-11-15T12:01:39;7.37;;;3.03;;
43086;SDS011;28708;52.224;6.924;2022-11-15T12:04:53;5.93;;;3.07;;
43086;SDS011;28708;52.224;6.924;2022-11-15T12:09:39;5.00;;;2.93;;
43086;SDS011;28708;52.224;6.924;2022-11-15T12:14:57;6.50;;;3.50;;
43086;SDS011;28708;52.224;6.924;2022-11-15T12:17:29;7.30;;;3.53;;
43086;SDS011;28708;52.224;6.924;2022-11-15T12:20:00;5.20;;;3.10;;
43086;SDS011;28708;52.224;6.924;2022-11-15T12:22:35;5.87;;;3.90;;
43086;SDS011;28708;52.224;6.924;2022-11-15T12:25:18;7.77;;;3.50;;
43086;SDS011;28708;52.224;6.924;2022-11-15T12:28:00;6.53;;;3.77;;
43086;SDS011;28708;52.224;6.924;2022-11-15T12:31:03;5.87;;;3.10;;
43086;SDS011;28708;52.224;6.924;2022-11-15T12:33:37;6.00;;;3.33;;
43086;SDS011;28708;52.224;6.924;2022-11-15T12:38:58;7.13;;;3.73;;
43086;SDS011;28708;52.224;6.924;2022-11-15T12:43:55;7.75;;;3.35;;
43086;SDS011;28708;52.224;6.924;2022-11-15T12:48:58;7.23;;;3.33;;
43086;SDS011;28708;52.224;6.924;2022-11-15T13:02:20;5.80;;;3.17;;
43086;SDS011;28708;52.224;6.924;2022-11-15T13:04:49;5.70;;;3.17;;
43086;SDS011;28708;52.224;6.924;2022-11-15T13:10:00;5.73;;;2.03;;
43086;SDS011;28708;52.224;6.924;2022-11-15T13:27:56;4.03;;;1.87;;
43086;SDS011;28708;52.224;6.924;2022-11-15T13:30:27;2.90;;;1.60;;
43086;SDS011;28708;52.224;6.924;2022-11-15T13:32:55;7.53;;;2.13;;
43086;SDS011;28708;52.224;6.924;2022-11-15T13:35:22;4.50;;;1.77;;
43086;SDS011;28708;52.224;6.924;2022-11-15T13:37:50;4.50;;;1.63;;
43086;SDS011;28708;52.224;6.924;2022-11-15T13:40:22;5.20;;;1.80;;
43086;SDS011;28708;52.224;6.924;2022-11-15T13:42:52;4.03;;;1.60;;
43086;SDS011;28708;52.224;6.924;2022-11-15T13:45:19;5.93;;;2.20;;
43086;SDS011;28708;52.224;6.924;2022-11-15T13:47:47;5.43;;;1.53;;
43086;SDS011;28708;52.224;6.924;2022-11-15T13:50:21;2.70;;;1.10;;
43086;SDS011;28708;52.224;6.924;2022-11-15T13:52:56;5.67;;;2.00;;
43086;SDS011;28708;52.224;6.924;2022-11-15T13:55:25;4.93;;;2.33;;
43086;SDS011;28708;52.224;6.924;2022-11-15T13:57:53;4.70;;;1.60;;
43086;SDS011;28708;52.224;6.924;2022-11-15T14:00:25;6.67;;;1.70;;
43086;SDS011;28708;52.224;6.924;2022-11-15T14:02:51;3.63;;;1.20;;
43086;SDS011;28708;52.224;6.924;2022-11-15T14:05:20;3.97;;;1.30;;
43086;SDS011;28708;52.224;6.924;2022-11-15T14:10:25;4.47;;;1.37;;
43086;SDS011;28708;52.224;6.924;2022-11-15T14:12:57;4.53;;;1.70;;
43086;SDS011;28708;52.224;6.924;2022-11-15T14:15:25;3.33;;;1.20;;
43086;SDS011;28708;52.224;6.924;2022-11-15T14:17:57;3.00;;;1.57;;
43086;SDS011;28708;52.224;6.924;2022-11-15T14:23:40;5.23;;;1.07;;
43086;SDS011;28708;52.224;6.924;2022-11-15T14:25:54;5.70;;;1.13;;
43086;SDS011;28708;52.224;6.924;2022-11-15T14:30:54;6.40;;;1.50;;
43086;SDS011;28708;52.224;6.924;2022-11-15T14:33:26;6.90;;;2.13;;
43086;SDS011;28708;52.224;6.924;2022-11-15T14:35:56;4.27;;;2.07;;
43086;SDS011;28708;52.224;6.924;2022-11-15T14:38:26;7.50;;;3.00;;
43086;SDS011;28708;52.224;6.924;2022-11-15T14:40:52;10.17;;;3.03;;
43086;SDS011;28708;52.224;6.924;2022-11-15T14:43:20;5.90;;;1.93;;
43086;SDS011;28708;52.224;6.924;2022-11-15T14:45:46;8.53;;;2.47;;
43086;SDS011;28708;52.224;6.924;2022-11-15T14:48:12;5.70;;;1.40;;
43086;SDS011;28708;52.224;6.924;2022-11-15T14:50:37;7.47;;;1.90;;
43086;SDS011;28708;52.224;6.924;2022-11-15T14:53:03;4.10;;;1.47;;
43086;SDS011;28708;52.224;6.924;2022-11-15T14:55:31;6.00;;;1.67;;
43086;SDS011;28708;52.224;6.924;2022-11-15T14:58:04;4.67;;;1.40;;
43086;SDS011;28708;52.224;6.924;2022-11-15T15:00:33;5.83;;;1.63;;
43086;SDS011;28708;52.224;6.924;2022-11-15T15:03:03;6.07;;;1.53;;
43086;SDS011;28708;52.224;6.924;2022-11-15T15:05:36;8.60;;;1.80;;
43086;SDS011;28708;52.224;6.924;2022-11-15T15:08:06;4.23;;;1.07;;
43086;SDS011;28708;52.224;6.924;2022-11-15T15:10:33;6.40;;;1.60;;
43086;SDS011;28708;52.224;6.924;2022-11-15T15:13:01;4.63;;;1.40;;
43086;SDS011;28708;52.224;6.924;2022-11-15T15:15:35;5.97;;;1.63;;
43086;SDS011;28708;52.224;6.924;2022-11-15T15:18:02;5.47;;;1.70;;
43086;SDS011;28708;52.224;6.924;2022-11-15T15:20:30;5.33;;;1.53;;
43086;SDS011;28708;52.224;6.924;2022-11-15T15:22:56;3.67;;;1.30;;
43086;SDS011;28708;52.224;6.924;2022-11-15T15:25:32;3.67;;;1.47;;
43086;SDS011;28708;52.224;6.924;2022-11-15T15:28:00;4.43;;;1.60;;
43086;SDS011;28708;52.224;6.924;2022-11-15T15:30:27;3.60;;;1.60;;
43086;SDS011;28708;52.224;6.924;2022-11-15T15:32:54;6.63;;;1.60;;
43086;SDS011;28708;52.224;6.924;2022-11-15T15:35:20;6.00;;;1.70;;
43086;SDS011;28708;52.224;6.924;2022-11-15T15:37:47;4.97;;;1.60;;
43086;SDS011;28708;52.224;6.924;2022-11-15T15:40:14;5.33;;;1.90;;
43086;SDS011;28708;52.224;6.924;2022-11-15T15:42:42;6.93;;;2.90;;
43086;SDS011;28708;52.224;6.924;2022-11-15T15:45:08;7.03;;;3.10;;
43086;SDS011;28708;52.224;6.924;2022-11-15T15:47:34;8.73;;;3.77;;
43086;SDS011;28708;52.224;6.924;2022-11-15T15:50:00;8.07;;;3.10;;
43086;SDS011;28708;52.224;6.924;2022-11-15T15:52:26;8.47;;;2.70;;
43086;SDS011;28708;52.224;6.924;2022-11-15T15:54:52;6.67;;;2.47;;
43086;SDS011;28708;52.224;6.924;2022-11-15T15:57:17;6.47;;;3.00;;
43086;SDS011;28708;52.224;6.924;2022-11-15T15:59:43;8.77;;;3.53;;
43086;SDS011;28708;52.224;6.924;2022-11-15T16:02:11;11.70;;;3.63;;
43086;SDS011;28708;52.224;6.924;2022-11-15T16:04:37;8.90;;;3.87;;
43086;SDS011;28708;52.224;6.924;2022-11-15T16:07:03;10.07;;;4.00;;
43086;SDS011;28708;52.224;6.924;2022-11-15T16:09:29;11.03;;;4.93;;
43086;SDS011;28708;52.224;6.924;2022-11-15T16:12:13;10.27;;;4.63;;
43086;SDS011;28708;52.224;6.924;2022-11-15T16:14:41;11.30;;;5.47;;
43086;SDS011;28708;52.224;6.924;2022-11-15T16:17:23;50.67;;;43.23;;
43086;SDS011;28708;52.224;6.924;2022-11-15T16:19:51;50.83;;;34.97;;
43086;SDS011;28708;52.224;6.924;2022-11-15T16:22:17;10.43;;;5.67;;
43086;SDS011;28708;52.224;6.924;2022-11-15T16:24:42;9.50;;;4.50;;
43086;SDS011;28708;52.224;6.924;2022-11-15T16:27:15;11.20;;;5.30;;
43086;SDS011;28708;52.224;6.924;2022-11-15T16:29:42;44.37;;;28.93;;
43086;SDS011;28708;52.224;6.924;2022-11-15T16:32:09;77.37;;;49.83;;
43086;SDS011;28708;52.224;6.924;2022-11-15T16:34:35;29.10;;;17.83;;
43086;SDS011;28708;52.224;6.924;2022-11-15T16:37:00;47.80;;;28.33;;
43086;SDS011;28708;52.224;6.924;2022-11-15T16:39:26;10.70;;;5.90;;
43086;SDS011;28708;52.224;6.924;2022-11-15T16:41:55;3.63;;;2.10;;
43086;SDS011;28708;52.224;6.924;2022-11-15T16:44:21;7.97;;;2.80;;
43086;SDS011;28708;52.224;6.924;2022-11-15T16:46:48;5.70;;;2.70;;
43086;SDS011;28708;52.224;6.924;2022-11-15T16:49:20;5.90;;;2.30;;
43086;SDS011;28708;52.224;6.924;2022-11-15T16:51:46;5.37;;;2.00;;
43086;SDS011;28708;52.224;6.924;2022-11-15T16:54:13;4.97;;;2.00;;
43086;SDS011;28708;52.224;6.924;2022-11-15T16:56:39;4.93;;;1.87;;
43086;SDS011;28708;52.224;6.924;2022-11-15T16:59:06;6.23;;;1.87;;
43086;SDS011;28708;52.224;6.924;2022-11-15T17:01:35;5.20;;;2.00;;
43086;SDS011;28708;52.224;6.924;2022-11-15T17:04:11;17.37;;;10.50;;
43086;SDS011;28708;52.224;6.924;2022-11-15T17:06:37;7.03;;;2.43;;
43086;SDS011;28708;52.224;6.924;2022-11-15T17:09:04;7.10;;;3.13;;
43086;SDS011;28708;52.224;6.924;2022-11-15T17:11:30;12.07;;;6.30;;
43086;SDS011;28708;52.224;6.924;2022-11-15T17:13:56;13.90;;;3.73;;
43086;SDS011;28708;52.224;6.924;2022-11-15T17:16:23;5.80;;;2.20;;
43086;SDS011;28708;52.224;6.924;2022-11-15T17:18:49;6.17;;;2.37;;
43086;SDS011;28708;52.224;6.924;2022-11-15T17:21:16;15.47;;;6.37;;
43086;SDS011;28708;52.224;6.924;2022-11-15T17:23:43;17.23;;;9.70;;
43086;SDS011;28708;52.224;6.924;2022-11-15T17:26:09;8.57;;;5.20;;
43086;SDS011;28708;52.224;6.924;2022-11-15T17:28:37;17.63;;;10.07;;
43086;SDS011;28708;52.224;6.924;2022-11-15T17:31:07;12.50;;;5.30;;
43086;SDS011;28708;52.224;6.924;2022-11-15T17:33:34;10.57;;;5.87;;
43086;SDS011;28708;52.224;6.924;2022-11-15T17:36:01;13.47;;;5.07;;
43086;SDS011;28708;52.224;6.924;2022-11-15T17:38:28;16.03;;;6.70;;